sensor_id;sensor_type;location;lat;lon;timestamp;P1;durP1;ratioP1;P2;durP2;ratioP2
41309;SDS011;27057;51.438;-0.010;2023-04-24T00:01:51;77.85;;;37.70;;
41309;SDS011;27057;51.438;-0.010;2023-04-24T00:04:19;75.03;;;39.17;;
41309;SDS011;27057;51.438;-0.010;2023-04-24T00:06:47;75.88;;;38.85;;
41309;SDS011;27057;51.438;-0.010;2023-04-24T00:09:20;75.30;;;35.60;;
41309;SDS011;27057;51.438;-0.010;2023-04-24T00:11:49;76.72;;;38.80;;
41309;SDS011;27057;51.438;-0.010;2023-04-24T00:14:17;78.72;;;37.55;;
41309;SDS011;27057;51.438;-0.010;2023-04-24T00:16:44;72.35;;;37.75;;
41309;SDS011;27057;51.438;-0.010;2023-04-24T00:19:12;73.20;;;35.38;;
41309;SDS011;27057;51.438;-0.010;2023-04-24T00:21:39;67.88;;;34.22;;
41309;SDS011;27057;51.438;-0.010;2023-04-24T00:24:08;76.03;;;37.35;;
41309;SDS011;27057;51.438;-0.010;2023-04-24T00:26:36;68.93;;;37.83;;
41309;SDS011;27057;51.438;-0.010;2023-04-24T00:29:04;65.00;;;33.75;;
41309;SDS011;27057;51.438;-0.010;2023-04-24T00:31:31;69.25;;;35.08;;
41309;SDS011;27057;51.438;-0.010;2023-04-24T00:34:02;67.72;;;34.70;;
41309;SDS011;27057;51.438;-0.010;2023-04-24T00:36:30;60.00;;;30.55;;
41309;SDS011;27057;51.438;-0.010;2023-04-24T00:38:57;67.38;;;34.63;;
41309;SDS011;27057;51.438;-0.010;2023-04-24T00:41:25;61.42;;;30.80;;
41309;SDS011;27057;51.438;-0.010;2023-04-24T00:43:52;67.47;;;33.53;;
41309;SDS011;27057;51.438;-0.010;2023-04-24T00:46:20;70.78;;;34.42;;
41309;SDS011;27057;51.438;-0.010;2023-04-24T00:48:59;72.13;;;33.80;;
41309;SDS011;27057;51.438;-0.010;2023-04-24T00:51:26;62.72;;;30.83;;
41309;SDS011;27057;51.438;-0.010;2023-04-24T00:53:54;59.95;;;32.28;;
41309;SDS011;27057;51.438;-0.010;2023-04-24T00:56:22;64.47;;;30.88;;
41309;SDS011;27057;51.438;-0.010;2023-04-24T00:58:50;66.32;;;33.58;;
41309;SDS011;27057;51.438;-0.010;2023-04-24T01:01:18;76.38;;;37.15;;
41309;SDS011;27057;51.438;-0.010;2023-04-24T01:03:50;58.45;;;30.90;;
41309;SDS011;27057;51.438;-0.010;2023-04-24T01:06:19;69.70;;;32.97;;
41309;SDS011;27057;51.438;-0.010;2023-04-24T01:08:47;62.42;;;31.67;;
41309;SDS011;27057;51.438;-0.010;2023-04-24T01:11:18;61.60;;;33.03;;
41309;SDS011;27057;51.438;-0.010;2023-04-24T01:13:46;59.22;;;32.72;;
41309;SDS011;27057;51.438;-0.010;2023-04-24T01:16:14;66.35;;;34.63;;
41309;SDS011;27057;51.438;-0.010;2023-04-24T01:18:44;58.88;;;31.38;;
41309;SDS011;27057;51.438;-0.010;2023-04-24T01:21:15;64.35;;;32.40;;
41309;SDS011;27057;51.438;-0.010;2023-04-24T01:23:44;64.22;;;30.15;;
41309;SDS011;27057;51.438;-0.010;2023-04-24T01:26:13;59.45;;;31.40;;
41309;SDS011;27057;51.438;-0.010;2023-04-24T01:28:41;56.65;;;28.98;;
41309;SDS011;27057;51.438;-0.010;2023-04-24T01:31:09;62.63;;;28.58;;
41309;SDS011;27057;51.438;-0.010;2023-04-24T01:33:37;60.42;;;31.73;;
41309;SDS011;27057;51.438;-0.010;2023-04-24T01:36:05;57.65;;;31.15;;
41309;SDS011;27057;51.438;-0.010;2023-04-24T01:38:34;63.40;;;33.78;;
41309;SDS011;27057;51.438;-0.010;2023-04-24T01:41:05;69.50;;;33.95;;
41309;SDS011;27057;51.438;-0.010;2023-04-24T01:43:32;65.15;;;32.70;;
41309;SDS011;27057;51.438;-0.010;2023-04-24T01:46:02;67.15;;;33.38;;
41309;SDS011;27057;51.438;-0.010;2023-04-24T01:48:30;62.95;;;31.95;;
41309;SDS011;27057;51.438;-0.010;2023-04-24T01:50:58;67.10;;;33.80;;
41309;SDS011;27057;51.438;-0.010;2023-04-24T01:53:26;63.35;;;32.15;;
41309;SDS011;27057;51.438;-0.010;2023-04-24T01:55:53;60.25;;;30.90;;
41309;SDS011;27057;51.438;-0.010;2023-04-24T01:58:21;58.67;;;30.88;;
41309;SDS011;27057;51.438;-0.010;2023-04-24T02:00:49;58.58;;;30.42;;
41309;SDS011;27057;51.438;-0.010;2023-04-24T02:03:17;67.72;;;28.42;;
41309;SDS011;27057;51.438;-0.010;2023-04-24T02:05:45;59.83;;;31.45;;
41309;SDS011;27057;51.438;-0.010;2023-04-24T02:08:12;65.13;;;29.58;;
41309;SDS011;27057;51.438;-0.010;2023-04-24T02:10:40;58.50;;;30.02;;
41309;SDS011;27057;51.438;-0.010;2023-04-24T02:13:08;60.53;;;31.55;;
41309;SDS011;27057;51.438;-0.010;2023-04-24T02:15:35;61.55;;;32.58;;
41309;SDS011;27057;51.438;-0.010;2023-04-24T02:18:04;59.97;;;30.08;;
41309;SDS011;27057;51.438;-0.010;2023-04-24T02:20:33;51.00;;;25.45;;
41309;SDS011;27057;51.438;-0.010;2023-04-24T02:23:02;60.00;;;28.48;;
41309;SDS011;27057;51.438;-0.010;2023-04-24T02:25:32;54.45;;;27.55;;
41309;SDS011;27057;51.438;-0.010;2023-04-24T02:28:00;63.13;;;29.08;;
41309;SDS011;27057;51.438;-0.010;2023-04-24T02:30:27;48.88;;;26.73;;
41309;SDS011;27057;51.438;-0.010;2023-04-24T02:32:55;51.08;;;26.50;;
41309;SDS011;27057;51.438;-0.010;2023-04-24T02:35:22;60.28;;;31.17;;
41309;SDS011;27057;51.438;-0.010;2023-04-24T02:37:50;54.97;;;27.17;;
41309;SDS011;27057;51.438;-0.010;2023-04-24T02:40:17;53.45;;;27.08;;
41309;SDS011;27057;51.438;-0.010;2023-04-24T02:42:46;55.33;;;26.70;;
41309;SDS011;27057;51.438;-0.010;2023-04-24T02:45:13;66.47;;;30.30;;
41309;SDS011;27057;51.438;-0.010;2023-04-24T02:47:41;51.80;;;26.33;;
41309;SDS011;27057;51.438;-0.010;2023-04-24T02:50:09;62.08;;;28.65;;
41309;SDS011;27057;51.438;-0.010;2023-04-24T02:52:36;62.58;;;30.73;;
41309;SDS011;27057;51.438;-0.010;2023-04-24T02:55:04;51.17;;;25.20;;
41309;SDS011;27057;51.438;-0.010;2023-04-24T02:57:32;46.67;;;23.85;;
41309;SDS011;27057;51.438;-0.010;2023-04-24T02:59:59;47.47;;;24.98;;
41309;SDS011;27057;51.438;-0.010;2023-04-24T03:02:27;38.22;;;16.58;;
41309;SDS011;27057;51.438;-0.010;2023-04-24T03:04:54;47.72;;;23.50;;
41309;SDS011;27057;51.438;-0.010;2023-04-24T03:07:22;54.42;;;29.52;;
41309;SDS011;27057;51.438;-0.010;2023-04-24T03:09:50;47.40;;;21.10;;
41309;SDS011;27057;51.438;-0.010;2023-04-24T03:12:18;36.08;;;19.05;;
41309;SDS011;27057;51.438;-0.010;2023-04-24T03:14:46;38.65;;;19.42;;
41309;SDS011;27057;51.438;-0.010;2023-04-24T03:17:13;45.00;;;25.63;;
41309;SDS011;27057;51.438;-0.010;2023-04-24T03:19:41;56.97;;;26.85;;
41309;SDS011;27057;51.438;-0.010;2023-04-24T03:22:10;47.08;;;22.08;;
41309;SDS011;27057;51.438;-0.010;2023-04-24T03:24:39;61.80;;;28.48;;
41309;SDS011;27057;51.438;-0.010;2023-04-24T03:27:07;46.97;;;25.35;;
41309;SDS011;27057;51.438;-0.010;2023-04-24T03:29:55;48.90;;;25.65;;
41309;SDS011;27057;51.438;-0.010;2023-04-24T03:32:33;52.85;;;25.80;;
41309;SDS011;27057;51.438;-0.010;2023-04-24T03:35:01;46.45;;;25.42;;
41309;SDS011;27057;51.438;-0.010;2023-04-24T03:37:30;49.97;;;29.40;;
41309;SDS011;27057;51.438;-0.010;2023-04-24T03:40:12;52.97;;;26.67;;
41309;SDS011;27057;51.438;-0.010;2023-04-24T03:42:40;57.83;;;26.75;;
41309;SDS011;27057;51.438;-0.010;2023-04-24T03:45:08;48.30;;;25.15;;
41309;SDS011;27057;51.438;-0.010;2023-04-24T03:47:39;56.38;;;27.40;;
41309;SDS011;27057;51.438;-0.010;2023-04-24T03:50:07;46.67;;;24.25;;
41309;SDS011;27057;51.438;-0.010;2023-04-24T03:52:36;56.83;;;25.77;;
41309;SDS011;27057;51.438;-0.010;2023-04-24T03:55:04;49.58;;;25.45;;
41309;SDS011;27057;51.438;-0.010;2023-04-24T03:57:38;50.17;;;25.80;;
41309;SDS011;27057;51.438;-0.010;2023-04-24T04:00:16;44.35;;;26.52;;
41309;SDS011;27057;51.438;-0.010;2023-04-24T04:02:52;49.67;;;25.75;;
41309;SDS011;27057;51.438;-0.010;2023-04-24T04:05:20;56.85;;;28.17;;
41309;SDS011;27057;51.438;-0.010;2023-04-24T04:07:47;48.25;;;25.23;;
41309;SDS011;27057;51.438;-0.010;2023-04-24T04:10:15;40.13;;;22.17;;
41309;SDS011;27057;51.438;-0.010;2023-04-24T04:12:44;52.70;;;27.00;;
41309;SDS011;27057;51.438;-0.010;2023-04-24T04:15:11;49.25;;;24.83;;
41309;SDS011;27057;51.438;-0.010;2023-04-24T04:17:40;50.63;;;23.30;;
41309;SDS011;27057;51.438;-0.010;2023-04-24T04:20:08;46.53;;;24.27;;
41309;SDS011;27057;51.438;-0.010;2023-04-24T04:22:38;53.33;;;26.13;;
41309;SDS011;27057;51.438;-0.010;2023-04-24T04:25:12;59.85;;;27.65;;
41309;SDS011;27057;51.438;-0.010;2023-04-24T04:27:40;62.85;;;28.55;;
41309;SDS011;27057;51.438;-0.010;2023-04-24T04:30:10;57.40;;;28.70;;
41309;SDS011;27057;51.438;-0.010;2023-04-24T04:32:46;51.83;;;26.13;;
41309;SDS011;27057;51.438;-0.010;2023-04-24T04:35:14;60.90;;;28.23;;
41309;SDS011;27057;51.438;-0.010;2023-04-24T04:37:42;53.53;;;26.98;;
41309;SDS011;27057;51.438;-0.010;2023-04-24T04:40:18;62.95;;;28.52;;
41309;SDS011;27057;51.438;-0.010;2023-04-24T04:42:54;53.28;;;25.83;;
41309;SDS011;27057;51.438;-0.010;2023-04-24T04:45:23;49.80;;;27.55;;
41309;SDS011;27057;51.438;-0.010;2023-04-24T04:48:11;48.95;;;26.85;;
41309;SDS011;27057;51.438;-0.010;2023-04-24T04:50:40;55.30;;;29.50;;
41309;SDS011;27057;51.438;-0.010;2023-04-24T04:53:09;61.83;;;29.90;;
41309;SDS011;27057;51.438;-0.010;2023-04-24T04:55:38;59.95;;;29.10;;
41309;SDS011;27057;51.438;-0.010;2023-04-24T04:58:10;64.32;;;29.92;;
41309;SDS011;27057;51.438;-0.010;2023-04-24T05:00:38;63.65;;;31.10;;
41309;SDS011;27057;51.438;-0.010;2023-04-24T05:03:14;59.00;;;30.35;;
41309;SDS011;27057;51.438;-0.010;2023-04-24T05:05:50;59.92;;;28.23;;
41309;SDS011;27057;51.438;-0.010;2023-04-24T05:08:18;60.53;;;29.27;;
41309;SDS011;27057;51.438;-0.010;2023-04-24T05:10:54;56.17;;;29.52;;
41309;SDS011;27057;51.438;-0.010;2023-04-24T05:13:23;49.50;;;25.85;;
41309;SDS011;27057;51.438;-0.010;2023-04-24T05:16:08;67.10;;;29.05;;
41309;SDS011;27057;51.438;-0.010;2023-04-24T05:18:36;49.03;;;24.48;;
41309;SDS011;27057;51.438;-0.010;2023-04-24T05:21:05;45.30;;;25.02;;
41309;SDS011;27057;51.438;-0.010;2023-04-24T05:23:34;53.08;;;25.92;;
41309;SDS011;27057;51.438;-0.010;2023-04-24T05:26:02;53.80;;;26.10;;
41309;SDS011;27057;51.438;-0.010;2023-04-24T05:28:33;50.03;;;25.35;;
41309;SDS011;27057;51.438;-0.010;2023-04-24T05:31:09;58.42;;;27.33;;
41309;SDS011;27057;51.438;-0.010;2023-04-24T05:33:36;45.95;;;25.25;;
41309;SDS011;27057;51.438;-0.010;2023-04-24T05:36:04;51.15;;;27.02;;
41309;SDS011;27057;51.438;-0.010;2023-04-24T05:38:33;44.55;;;21.92;;
41309;SDS011;27057;51.438;-0.010;2023-04-24T05:41:01;50.35;;;23.58;;
41309;SDS011;27057;51.438;-0.010;2023-04-24T05:43:28;41.55;;;22.48;;
41309;SDS011;27057;51.438;-0.010;2023-04-24T05:45:56;45.75;;;22.75;;
41309;SDS011;27057;51.438;-0.010;2023-04-24T05:48:23;46.83;;;21.05;;
41309;SDS011;27057;51.438;-0.010;2023-04-24T05:50:51;46.20;;;21.95;;
41309;SDS011;27057;51.438;-0.010;2023-04-24T05:53:19;43.22;;;21.35;;
41309;SDS011;27057;51.438;-0.010;2023-04-24T05:55:47;48.78;;;21.35;;
41309;SDS011;27057;51.438;-0.010;2023-04-24T05:58:15;46.20;;;21.25;;
41309;SDS011;27057;51.438;-0.010;2023-04-24T06:00:44;41.35;;;20.85;;
41309;SDS011;27057;51.438;-0.010;2023-04-24T06:03:13;53.83;;;21.00;;
41309;SDS011;27057;51.438;-0.010;2023-04-24T06:05:43;38.83;;;19.70;;
41309;SDS011;27057;51.438;-0.010;2023-04-24T06:08:10;44.20;;;20.40;;
41309;SDS011;27057;51.438;-0.010;2023-04-24T06:10:39;48.00;;;18.75;;
41309;SDS011;27057;51.438;-0.010;2023-04-24T06:13:08;45.05;;;18.80;;
41309;SDS011;27057;51.438;-0.010;2023-04-24T06:15:39;36.53;;;16.30;;
41309;SDS011;27057;51.438;-0.010;2023-04-24T06:18:10;33.85;;;11.43;;
41309;SDS011;27057;51.438;-0.010;2023-04-24T06:20:40;30.98;;;9.32;;
41309;SDS011;27057;51.438;-0.010;2023-04-24T06:23:09;20.58;;;7.68;;
41309;SDS011;27057;51.438;-0.010;2023-04-24T06:25:36;18.15;;;6.72;;
41309;SDS011;27057;51.438;-0.010;2023-04-24T06:28:04;20.48;;;6.10;;
41309;SDS011;27057;51.438;-0.010;2023-04-24T06:30:32;17.80;;;6.45;;
41309;SDS011;27057;51.438;-0.010;2023-04-24T06:33:00;15.95;;;6.20;;
41309;SDS011;27057;51.438;-0.010;2023-04-24T06:35:45;19.60;;;6.03;;
41309;SDS011;27057;51.438;-0.010;2023-04-24T06:38:13;14.57;;;5.80;;
41309;SDS011;27057;51.438;-0.010;2023-04-24T06:40:40;12.15;;;4.45;;
41309;SDS011;27057;51.438;-0.010;2023-04-24T06:43:07;13.82;;;4.53;;
41309;SDS011;27057;51.438;-0.010;2023-04-24T06:45:35;23.08;;;5.35;;
41309;SDS011;27057;51.438;-0.010;2023-04-24T06:48:02;12.45;;;4.65;;
41309;SDS011;27057;51.438;-0.010;2023-04-24T06:50:29;10.15;;;3.75;;
41309;SDS011;27057;51.438;-0.010;2023-04-24T06:52:57;12.65;;;4.03;;
41309;SDS011;27057;51.438;-0.010;2023-04-24T06:55:26;18.08;;;4.63;;
41309;SDS011;27057;51.438;-0.010;2023-04-24T06:57:53;14.95;;;4.68;;
41309;SDS011;27057;51.438;-0.010;2023-04-24T07:00:21;18.42;;;4.38;;
41309;SDS011;27057;51.438;-0.010;2023-04-24T07:02:50;13.43;;;3.72;;
41309;SDS011;27057;51.438;-0.010;2023-04-24T07:05:18;13.60;;;3.75;;
41309;SDS011;27057;51.438;-0.010;2023-04-24T07:07:50;22.65;;;4.68;;
41309;SDS011;27057;51.438;-0.010;2023-04-24T07:10:18;15.18;;;4.47;;
41309;SDS011;27057;51.438;-0.010;2023-04-24T07:12:45;23.33;;;4.03;;
41309;SDS011;27057;51.438;-0.010;2023-04-24T07:15:13;14.07;;;3.95;;
41309;SDS011;27057;51.438;-0.010;2023-04-24T07:17:41;19.95;;;4.55;;
41309;SDS011;27057;51.438;-0.010;2023-04-24T07:20:13;10.40;;;4.47;;
41309;SDS011;27057;51.438;-0.010;2023-04-24T07:22:41;14.85;;;4.47;;
41309;SDS011;27057;51.438;-0.010;2023-04-24T07:25:08;16.40;;;4.10;;
41309;SDS011;27057;51.438;-0.010;2023-04-24T07:27:38;15.45;;;3.60;;
41309;SDS011;27057;51.438;-0.010;2023-04-24T07:30:06;12.30;;;3.50;;
41309;SDS011;27057;51.438;-0.010;2023-04-24T07:32:34;8.38;;;2.80;;
41309;SDS011;27057;51.438;-0.010;2023-04-24T07:35:01;19.38;;;4.25;;
41309;SDS011;27057;51.438;-0.010;2023-04-24T07:37:29;14.57;;;3.47;;
41309;SDS011;27057;51.438;-0.010;2023-04-24T07:39:57;17.23;;;2.92;;
41309;SDS011;27057;51.438;-0.010;2023-04-24T07:42:25;11.73;;;3.55;;
41309;SDS011;27057;51.438;-0.010;2023-04-24T07:44:52;7.95;;;2.53;;
41309;SDS011;27057;51.438;-0.010;2023-04-24T07:47:20;9.70;;;2.72;;
41309;SDS011;27057;51.438;-0.010;2023-04-24T07:49:47;12.55;;;3.58;;
41309;SDS011;27057;51.438;-0.010;2023-04-24T07:52:14;11.02;;;3.20;;
41309;SDS011;27057;51.438;-0.010;2023-04-24T07:54:42;16.67;;;2.78;;
41309;SDS011;27057;51.438;-0.010;2023-04-24T07:57:10;11.25;;;3.03;;
41309;SDS011;27057;51.438;-0.010;2023-04-24T07:59:37;17.58;;;3.30;;
41309;SDS011;27057;51.438;-0.010;2023-04-24T08:02:04;15.23;;;3.63;;
41309;SDS011;27057;51.438;-0.010;2023-04-24T08:04:33;12.20;;;3.25;;
41309;SDS011;27057;51.438;-0.010;2023-04-24T08:07:00;13.00;;;3.55;;
41309;SDS011;27057;51.438;-0.010;2023-04-24T08:09:28;8.82;;;3.25;;
41309;SDS011;27057;51.438;-0.010;2023-04-24T08:11:55;13.30;;;3.35;;
41309;SDS011;27057;51.438;-0.010;2023-04-24T08:14:23;9.63;;;2.85;;
41309;SDS011;27057;51.438;-0.010;2023-04-24T08:16:53;12.20;;;3.80;;
41309;SDS011;27057;51.438;-0.010;2023-04-24T08:19:22;14.00;;;3.40;;
41309;SDS011;27057;51.438;-0.010;2023-04-24T08:21:50;15.82;;;4.13;;
41309;SDS011;27057;51.438;-0.010;2023-04-24T08:24:17;14.45;;;4.30;;
41309;SDS011;27057;51.438;-0.010;2023-04-24T08:26:45;15.00;;;3.88;;
41309;SDS011;27057;51.438;-0.010;2023-04-24T08:29:12;12.50;;;3.55;;
41309;SDS011;27057;51.438;-0.010;2023-04-24T08:31:40;13.45;;;3.78;;
41309;SDS011;27057;51.438;-0.010;2023-04-24T08:34:09;9.68;;;3.63;;
41309;SDS011;27057;51.438;-0.010;2023-04-24T08:36:37;16.75;;;5.35;;
41309;SDS011;27057;51.438;-0.010;2023-04-24T08:39:13;15.73;;;4.30;;
41309;SDS011;27057;51.438;-0.010;2023-04-24T08:41:42;15.85;;;4.13;;
41309;SDS011;27057;51.438;-0.010;2023-04-24T08:44:10;19.17;;;5.57;;
41309;SDS011;27057;51.438;-0.010;2023-04-24T08:46:38;12.63;;;3.95;;
41309;SDS011;27057;51.438;-0.010;2023-04-24T08:49:07;10.30;;;4.32;;
41309;SDS011;27057;51.438;-0.010;2023-04-24T08:51:36;11.43;;;4.07;;
41309;SDS011;27057;51.438;-0.010;2023-04-24T08:54:04;11.93;;;4.78;;
41309;SDS011;27057;51.438;-0.010;2023-04-24T08:56:34;9.10;;;4.82;;
41309;SDS011;27057;51.438;-0.010;2023-04-24T08:59:08;15.82;;;4.15;;
41309;SDS011;27057;51.438;-0.010;2023-04-24T09:01:37;14.45;;;6.15;;
41309;SDS011;27057;51.438;-0.010;2023-04-24T09:04:07;15.20;;;4.70;;
41309;SDS011;27057;51.438;-0.010;2023-04-24T09:06:39;13.55;;;4.32;;
41309;SDS011;27057;51.438;-0.010;2023-04-24T09:09:07;15.05;;;4.78;;
41309;SDS011;27057;51.438;-0.010;2023-04-24T09:11:38;16.63;;;4.50;;
41309;SDS011;27057;51.438;-0.010;2023-04-24T09:14:06;13.90;;;4.88;;
41309;SDS011;27057;51.438;-0.010;2023-04-24T09:16:36;10.13;;;4.25;;
41309;SDS011;27057;51.438;-0.010;2023-04-24T09:19:04;12.05;;;4.60;;
41309;SDS011;27057;51.438;-0.010;2023-04-24T09:21:32;14.70;;;4.63;;
41309;SDS011;27057;51.438;-0.010;2023-04-24T09:24:01;13.48;;;4.40;;
41309;SDS011;27057;51.438;-0.010;2023-04-24T09:26:31;14.25;;;4.95;;
41309;SDS011;27057;51.438;-0.010;2023-04-24T09:28:59;14.93;;;4.22;;
41309;SDS011;27057;51.438;-0.010;2023-04-24T09:31:28;10.73;;;4.30;;
41309;SDS011;27057;51.438;-0.010;2023-04-24T09:34:00;16.95;;;5.43;;
41309;SDS011;27057;51.438;-0.010;2023-04-24T09:36:40;12.20;;;4.75;;
41309;SDS011;27057;51.438;-0.010;2023-04-24T09:39:11;10.82;;;4.57;;
41309;SDS011;27057;51.438;-0.010;2023-04-24T09:41:58;9.98;;;4.88;;
41309;SDS011;27057;51.438;-0.010;2023-04-24T09:44:28;18.83;;;5.00;;
41309;SDS011;27057;51.438;-0.010;2023-04-24T09:47:01;16.58;;;4.88;;
41309;SDS011;27057;51.438;-0.010;2023-04-24T09:49:29;19.60;;;4.47;;
41309;SDS011;27057;51.438;-0.010;2023-04-24T09:52:03;19.45;;;5.00;;
41309;SDS011;27057;51.438;-0.010;2023-04-24T09:54:32;15.32;;;5.45;;
41309;SDS011;27057;51.438;-0.010;2023-04-24T09:57:00;15.27;;;5.88;;
41309;SDS011;27057;51.438;-0.010;2023-04-24T09:59:29;13.93;;;5.65;;
41309;SDS011;27057;51.438;-0.010;2023-04-24T10:01:57;18.73;;;5.57;;
41309;SDS011;27057;51.438;-0.010;2023-04-24T10:04:29;17.55;;;5.45;;
41309;SDS011;27057;51.438;-0.010;2023-04-24T10:06:56;14.93;;;5.15;;
41309;SDS011;27057;51.438;-0.010;2023-04-24T10:09:26;20.10;;;5.95;;
41309;SDS011;27057;51.438;-0.010;2023-04-24T10:11:54;10.75;;;4.68;;
41309;SDS011;27057;51.438;-0.010;2023-04-24T10:14:23;13.02;;;4.68;;
41309;SDS011;27057;51.438;-0.010;2023-04-24T10:16:53;16.25;;;5.07;;
41309;SDS011;27057;51.438;-0.010;2023-04-24T10:19:25;10.50;;;4.50;;
41309;SDS011;27057;51.438;-0.010;2023-04-24T10:21:53;17.98;;;4.97;;
41309;SDS011;27057;51.438;-0.010;2023-04-24T10:24:22;20.17;;;5.32;;
41309;SDS011;27057;51.438;-0.010;2023-04-24T10:26:50;18.05;;;5.90;;
41309;SDS011;27057;51.438;-0.010;2023-04-24T10:29:18;14.30;;;4.68;;
41309;SDS011;27057;51.438;-0.010;2023-04-24T10:31:46;12.90;;;5.45;;
41309;SDS011;27057;51.438;-0.010;2023-04-24T10:34:15;14.50;;;5.63;;
41309;SDS011;27057;51.438;-0.010;2023-04-24T10:36:46;14.20;;;5.70;;
41309;SDS011;27057;51.438;-0.010;2023-04-24T10:39:17;12.10;;;5.50;;
41309;SDS011;27057;51.438;-0.010;2023-04-24T10:41:54;20.02;;;5.60;;
41309;SDS011;27057;51.438;-0.010;2023-04-24T10:44:25;13.65;;;5.63;;
41309;SDS011;27057;51.438;-0.010;2023-04-24T10:47:02;17.80;;;5.85;;
41309;SDS011;27057;51.438;-0.010;2023-04-24T10:49:30;22.77;;;6.07;;
41309;SDS011;27057;51.438;-0.010;2023-04-24T10:52:02;18.38;;;6.15;;
41309;SDS011;27057;51.438;-0.010;2023-04-24T10:54:36;11.90;;;5.80;;
41309;SDS011;27057;51.438;-0.010;2023-04-24T10:57:25;18.08;;;6.60;;
41309;SDS011;27057;51.438;-0.010;2023-04-24T11:02:48;19.65;;;6.20;;
41309;SDS011;27057;51.438;-0.010;2023-04-24T11:05:18;20.77;;;6.78;;
41309;SDS011;27057;51.438;-0.010;2023-04-24T11:10:44;18.23;;;7.53;;
41309;SDS011;27057;51.438;-0.010;2023-04-24T11:13:23;21.42;;;6.47;;
41309;SDS011;27057;51.438;-0.010;2023-04-24T11:18:52;16.17;;;5.38;;
41309;SDS011;27057;51.438;-0.010;2023-04-24T11:21:31;20.27;;;6.15;;
41309;SDS011;27057;51.438;-0.010;2023-04-24T11:27:23;11.70;;;5.32;;
41309;SDS011;27057;51.438;-0.010;2023-04-24T11:30:00;18.75;;;5.72;;
41309;SDS011;27057;51.438;-0.010;2023-04-24T11:35:04;13.75;;;5.35;;
41309;SDS011;27057;51.438;-0.010;2023-04-24T11:37:46;18.58;;;5.63;;
41309;SDS011;27057;51.438;-0.010;2023-04-24T11:40:22;22.27;;;6.57;;
41309;SDS011;27057;51.438;-0.010;2023-04-24T11:42:50;11.95;;;4.95;;
41309;SDS011;27057;51.438;-0.010;2023-04-24T11:45:21;16.10;;;5.20;;
41309;SDS011;27057;51.438;-0.010;2023-04-24T11:47:50;16.55;;;5.05;;
41309;SDS011;27057;51.438;-0.010;2023-04-24T11:50:20;15.95;;;5.28;;
41309;SDS011;27057;51.438;-0.010;2023-04-24T11:52:49;12.75;;;5.13;;
41309;SDS011;27057;51.438;-0.010;2023-04-24T11:57:46;18.52;;;5.43;;
41309;SDS011;27057;51.438;-0.010;2023-04-24T12:00:31;15.10;;;5.93;;
41309;SDS011;27057;51.438;-0.010;2023-04-24T12:03:05;22.02;;;6.63;;
41309;SDS011;27057;51.438;-0.010;2023-04-24T12:05:39;11.73;;;5.10;;
41309;SDS011;27057;51.438;-0.010;2023-04-24T12:08:08;11.18;;;5.55;;
41309;SDS011;27057;51.438;-0.010;2023-04-24T12:10:35;13.18;;;5.85;;
41309;SDS011;27057;51.438;-0.010;2023-04-24T12:13:03;17.15;;;5.50;;
41309;SDS011;27057;51.438;-0.010;2023-04-24T12:15:30;19.25;;;6.40;;
41309;SDS011;27057;51.438;-0.010;2023-04-24T12:17:58;20.13;;;6.00;;
41309;SDS011;27057;51.438;-0.010;2023-04-24T12:20:27;20.48;;;5.72;;
41309;SDS011;27057;51.438;-0.010;2023-04-24T12:22:56;19.13;;;6.22;;
41309;SDS011;27057;51.438;-0.010;2023-04-24T12:25:26;18.08;;;6.07;;
41309;SDS011;27057;51.438;-0.010;2023-04-24T12:33:11;16.55;;;6.80;;
41309;SDS011;27057;51.438;-0.010;2023-04-24T12:35:40;25.95;;;6.78;;
41309;SDS011;27057;51.438;-0.010;2023-04-24T12:38:08;15.23;;;6.63;;
41309;SDS011;27057;51.438;-0.010;2023-04-24T12:40:41;18.33;;;5.82;;
41309;SDS011;27057;51.438;-0.010;2023-04-24T12:43:13;17.30;;;5.75;;
41309;SDS011;27057;51.438;-0.010;2023-04-24T12:45:45;14.02;;;4.97;;
41309;SDS011;27057;51.438;-0.010;2023-04-24T12:48:14;11.35;;;4.28;;
41309;SDS011;27057;51.438;-0.010;2023-04-24T12:50:41;8.70;;;4.50;;
41309;SDS011;27057;51.438;-0.010;2023-04-24T12:53:13;9.43;;;4.82;;
41309;SDS011;27057;51.438;-0.010;2023-04-24T12:55:41;11.95;;;5.07;;
41309;SDS011;27057;51.438;-0.010;2023-04-24T12:58:09;9.90;;;4.75;;
41309;SDS011;27057;51.438;-0.010;2023-04-24T13:00:37;12.30;;;5.28;;
41309;SDS011;27057;51.438;-0.010;2023-04-24T13:03:05;12.93;;;5.03;;
41309;SDS011;27057;51.438;-0.010;2023-04-24T13:05:33;9.48;;;4.93;;
41309;SDS011;27057;51.438;-0.010;2023-04-24T13:08:01;20.45;;;5.00;;
41309;SDS011;27057;51.438;-0.010;2023-04-24T13:10:29;11.70;;;4.20;;
41309;SDS011;27057;51.438;-0.010;2023-04-24T13:12:56;17.98;;;5.18;;
41309;SDS011;27057;51.438;-0.010;2023-04-24T13:15:24;9.88;;;4.93;;
41309;SDS011;27057;51.438;-0.010;2023-04-24T13:17:52;15.23;;;4.53;;
41309;SDS011;27057;51.438;-0.010;2023-04-24T13:20:19;10.10;;;4.35;;
41309;SDS011;27057;51.438;-0.010;2023-04-24T13:22:47;7.32;;;4.22;;
41309;SDS011;27057;51.438;-0.010;2023-04-24T13:25:14;9.43;;;4.25;;
41309;SDS011;27057;51.438;-0.010;2023-04-24T13:27:43;8.82;;;4.68;;
41309;SDS011;27057;51.438;-0.010;2023-04-24T13:30:11;7.97;;;4.18;;
41309;SDS011;27057;51.438;-0.010;2023-04-24T13:32:39;14.68;;;4.55;;
41309;SDS011;27057;51.438;-0.010;2023-04-24T13:35:06;10.80;;;5.20;;
41309;SDS011;27057;51.438;-0.010;2023-04-24T13:37:34;11.15;;;4.13;;
41309;SDS011;27057;51.438;-0.010;2023-04-24T13:40:02;8.95;;;4.35;;
41309;SDS011;27057;51.438;-0.010;2023-04-24T13:42:33;8.20;;;3.70;;
41309;SDS011;27057;51.438;-0.010;2023-04-24T13:45:00;13.20;;;4.60;;
41309;SDS011;27057;51.438;-0.010;2023-04-24T13:47:43;9.52;;;3.78;;
41309;SDS011;27057;51.438;-0.010;2023-04-24T13:50:10;8.98;;;4.82;;
41309;SDS011;27057;51.438;-0.010;2023-04-24T13:52:38;9.23;;;4.72;;
41309;SDS011;27057;51.438;-0.010;2023-04-24T13:55:05;10.48;;;4.10;;
41309;SDS011;27057;51.438;-0.010;2023-04-24T13:57:33;8.80;;;4.20;;
41309;SDS011;27057;51.438;-0.010;2023-04-24T14:00:00;10.70;;;4.57;;
41309;SDS011;27057;51.438;-0.010;2023-04-24T14:02:32;10.50;;;4.38;;
41309;SDS011;27057;51.438;-0.010;2023-04-24T14:05:00;10.75;;;5.15;;
41309;SDS011;27057;51.438;-0.010;2023-04-24T14:07:29;6.43;;;3.85;;
41309;SDS011;27057;51.438;-0.010;2023-04-24T14:09:56;15.40;;;3.92;;
41309;SDS011;27057;51.438;-0.010;2023-04-24T14:12:24;12.43;;;4.65;;
41309;SDS011;27057;51.438;-0.010;2023-04-24T14:14:52;8.15;;;4.45;;
41309;SDS011;27057;51.438;-0.010;2023-04-24T14:17:21;18.50;;;4.60;;
41309;SDS011;27057;51.438;-0.010;2023-04-24T14:19:49;8.32;;;4.25;;
41309;SDS011;27057;51.438;-0.010;2023-04-24T14:22:18;11.63;;;5.03;;
41309;SDS011;27057;51.438;-0.010;2023-04-24T14:24:46;11.85;;;4.38;;
41309;SDS011;27057;51.438;-0.010;2023-04-24T14:27:13;9.75;;;4.47;;
41309;SDS011;27057;51.438;-0.010;2023-04-24T14:29:41;10.77;;;5.32;;
41309;SDS011;27057;51.438;-0.010;2023-04-24T14:32:08;7.03;;;4.05;;
41309;SDS011;27057;51.438;-0.010;2023-04-24T14:34:36;7.88;;;3.63;;
41309;SDS011;27057;51.438;-0.010;2023-04-24T14:37:03;6.30;;;3.58;;
41309;SDS011;27057;51.438;-0.010;2023-04-24T14:39:30;7.07;;;3.15;;
41309;SDS011;27057;51.438;-0.010;2023-04-24T14:41:58;7.70;;;4.07;;
41309;SDS011;27057;51.438;-0.010;2023-04-24T14:44:25;9.07;;;3.75;;
41309;SDS011;27057;51.438;-0.010;2023-04-24T14:46:53;12.60;;;4.30;;
41309;SDS011;27057;51.438;-0.010;2023-04-24T14:49:20;9.90;;;4.40;;
41309;SDS011;27057;51.438;-0.010;2023-04-24T14:51:47;8.32;;;3.70;;
41309;SDS011;27057;51.438;-0.010;2023-04-24T14:54:15;7.90;;;4.00;;